x

9441102 - Westport, Wa (wptw1) Weather Station

4:36pm - Tue 19th Jun 2018 All times are PDT. -7 hours from GMT.

  • Wind
    9mph, 11mph gusts
  • Sea Temp 60°f
  • Air Temp 58°f
  • Sea Pressure 1018.2mb
  • 9441102 - Westport, Wa
  • 9441102 - Westport, Wa

More Historic Weather Station data

Upgrade to MSW Pro to gain access to the past 30 days of data for over 8000 Wavebouys and Weather Stations around the globe.

Join

Comparision Forecast

View Surf forecast
   
Tue 06/19 4:36pm 9 11 mph 1018.2mb 60f 58f
4:30pm 10 13 mph 1018.3mb 60f 58f
4:24pm 10 13 mph 1018.3mb 60f 59f
4:18pm 11 13 mph 1018.4mb 60f 58f
4:12pm 9 10 mph 1018.5mb 60f 58f
4:06pm 10 11 mph 1018.5mb 60f 59f
4:00pm 10 13 mph 1018.5mb 60f 59f
3:36pm 9 11 mph 1018.6mb 59f 59f
3:30pm 9 11 mph 1018.6mb 59f 59f
3:24pm 10 11 mph 1018.6mb 59f 59f
3:18pm 10 11 mph 1018.6mb 59f 59f
3:12pm 10 11 mph 1018.7mb 59f 59f
3:06pm 9 10 mph 1018.7mb 59f 59f
3:00pm 9 11 mph 1018.7mb 59f 59f
2:36pm 11 13 mph 1019mb 59f 59f
2:30pm 9 10 mph 1018.9mb 59f 59f
2:24pm 9 11 mph 1018.8mb 59f 59f
2:18pm 9 10 mph 1018.8mb 59f 59f
2:12pm 10 11 mph 1018.8mb 59f 59f
2:06pm 10 11 mph 1018.8mb 59f 59f
2:00pm 11 13 mph 1018.8mb 59f 59f
1:36pm 7 9 mph 1018.9mb 59f 59f
1:30pm 8 10 mph 1018.9mb 59f 58f
1:24pm 8 9 mph 1019mb 59f 58f
1:18pm 8 10 mph 1019mb 59f 58f
1:12pm 9 11 mph 1019mb 59f 57f
1:06pm 10 13 mph 1019.1mb 59f 57f
1:00pm 9 11 mph 1019.1mb 59f 59f
12:36pm 9 13 mph 1019.2mb 59f 58f
12:30pm 9 11 mph 1019.2mb 59f 58f
12:24pm 9 13 mph 1019.2mb 60f 57f
12:18pm 10 11 mph 1019.2mb 60f 57f
12:12pm 10 13 mph 1019.2mb 60f 58f
12:06pm 8 11 mph 1019.2mb 60f 58f
12:00pm 9 13 mph 1019.1mb 60f 58f
11:36am 9 11 mph 1019.1mb 60f 57f
11:30am 9 13 mph 1019.2mb 60f 57f
11:24am 8 13 mph 1019.2mb 60f 58f
11:18am 8 11 mph 1019.2mb 59f 59f
11:12am 9 11 mph 1019.2mb 59f 58f
11:06am 9 11 mph 1019.2mb 59f 58f
11:00am 6 9 mph 1019.2mb 59f 60f
10:36am 8 10 mph 1019.1mb 58f 58f
10:30am 6 9 mph 1019mb 58f 58f
10:24am 6 10 mph 1019mb 58f 58f
10:18am 8 9 mph 1019mb 58f 58f
10:12am 7 9 mph 1019mb 58f 58f
10:06am 5 8 mph 1019mb 58f 58f
10:00am 7 9 mph 1019mb 58f 58f
9:36am 5 9 mph 1019mb 58f 58f
9:30am 7 9 mph 1019.1mb 58f 58f
9:24am 6 7 mph 1019mb 58f 57f
9:18am 6 7 mph 1019mb 58f 57f
9:12am 5 7 mph 1019.1mb 58f 57f
9:06am 3 6 mph 1019.1mb 58f 57f
9:00am 5 7 mph 1019.1mb 58f 57f
8:36am 5 7 mph 1019.1mb 58f 57f
8:30am 6 7 mph 1019.1mb 58f 57f
8:24am 6 7 mph 1019.1mb 58f 57f
8:18am 6 8 mph 1019mb 58f 57f
8:12am 7 8 mph 1019.1mb 58f 57f
8:06am 5 8 mph 1019.1mb 58f 57f
8:00am 3 6 mph 1019.1mb 57f 57f
7:36am 7 8 mph 1019mb 57f 57f
7:30am 6 9 mph 1019mb 57f 57f
7:24am 6 7 mph 1019mb 57f 57f
7:18am 6 8 mph 1018.9mb 56f 56f
7:12am 6 8 mph 1018.8mb 57f 57f
7:06am 5 9 mph 1018.8mb 57f 57f
7:00am 7 9 mph 1018.8mb 57f 57f
6:36am 8 9 mph 1018.8mb 56f 56f
6:30am 9 11 mph 1018.8mb 56f 56f
6:24am 9 11 mph 1018.8mb 56f 56f
6:18am 8 9 mph 1018.7mb 56f 56f
6:12am 6 8 mph 1018.6mb 57f 57f
6:06am 5 7 mph 1018.7mb 57f 57f
6:00am 6 8 mph 1018.6mb 57f 56f
5:36am 2 6 mph 1018.5mb 57f 56f
5:30am 6 7 mph 1018.5mb 58f 56f
5:24am 7 9 mph 1018.5mb 58f 56f
5:18am 8 9 mph 1018.4mb 58f 56f
5:12am 8 10 mph 1018.4mb 58f 57f
5:06am 6 8 mph 1018.3mb 58f 57f
5:00am 5 7 mph 1018.3mb 58f 57f
4:36am 5 7 mph 1018.3mb 58f 56f
4:30am 3 7 mph 1018.4mb 58f 57f
4:24am 5 6 mph 1018.4mb 58f 57f
4:18am 5 8 mph 1018.4mb 58f 56f
4:12am 6 10 mph 1018.4mb 58f 56f
4:06am 8 10 mph 1018.3mb 58f 57f
4:00am 6 8 mph 1018.4mb 58f 57f
3:36am 6 8 mph 1018.5mb 58f 57f
3:30am 6 8 mph 1018.5mb 58f 57f
3:24am 8 9 mph 1018.5mb 58f 57f
3:18am 7 9 mph 1018.6mb 58f 57f
3:12am 6 8 mph 1018.6mb 58f 57f
3:06am 6 8 mph 1018.6mb 58f 57f
3:00am 7 8 mph 1018.5mb 58f 57f
2:36am 8 9 mph 1018.5mb 58f 57f
2:30am 7 9 mph 1018.5mb 58f 57f
2:24am 6 7 mph 1018.5mb 58f 57f
2:18am 7 10 mph 1018.5mb 58f 57f
2:12am 7 10 mph 1018.5mb 58f 57f
2:06am 8 10 mph 1018.5mb 58f 57f
2:00am 10 13 mph 1018.5mb 58f 57f
1:36am 6 8 mph 1018.5mb 58f 57f
1:30am 7 10 mph 1018.6mb 58f 58f
1:24am 8 10 mph 1018.6mb 58f 58f
1:18am 6 7 mph 1018.6mb 58f 58f
1:12am 6 7 mph 1018.7mb 58f 58f
1:06am 7 10 mph 1018.7mb 58f 57f
1:00am 8 10 mph 1018.7mb 58f 58f
12:36am 6 8 mph 1018.5mb 59f 58f
12:30am 7 8 mph 1018.4mb 59f 58f
12:24am 7 9 mph 1018.5mb 59f 58f
12:18am 8 10 mph 1018.5mb 59f 58f
12:12am 8 10 mph 1018.4mb 59f 58f
12:06am 7 9 mph 1018.5mb 59f 58f
12:00am 7 9 mph 1018.5mb 59f 58f
Mon 06/18 11:36pm 8 10 mph 1018.5mb 60f 58f
11:30pm 9 11 mph 1018.5mb 60f 58f
11:24pm 7 9 mph 1018.4mb 60f 58f
11:18pm 8 10 mph 1018.3mb 60f 58f
11:12pm 7 10 mph 1018.3mb 60f 58f
11:06pm 10 13 mph 1018.3mb 60f 58f
11:00pm 11 14 mph 1018.3mb 60f 58f
10:36pm 9 11 mph 1018.4mb 59f 58f
10:30pm 9 11 mph 1018.4mb 59f 58f
10:24pm 10 13 mph 1018.4mb 59f 58f
10:18pm 8 11 mph 1018.4mb 59f 58f
10:12pm 10 14 mph 1018.4mb 59f 58f
10:06pm 9 11 mph 1018.3mb 59f 58f
10:00pm 11 14 mph 1018.2mb 59f 58f
9:36pm 7 9 mph 1018.1mb 58f 58f
9:30pm 7 10 mph 1018.1mb 58f 58f
9:24pm 8 11 mph 1018mb 57f 58f
9:18pm 8 13 mph 1017.9mb 56f 58f
9:12pm 9 11 mph 1017.9mb 56f 58f
9:06pm 8 13 mph 1017.9mb 56f 58f
9:00pm 8 14 mph 1017.9mb 56f 58f
8:36pm 9 14 mph 1018mb 56f 58f
8:30pm 9 13 mph 1018mb 56f 58f
8:24pm 9 14 mph 1018mb 56f 58f
8:18pm 10 14 mph 1018mb 56f 58f
8:12pm 10 14 mph 1017.9mb 56f 58f
8:06pm 10 14 mph 1017.9mb 56f 58f
8:00pm 9 13 mph 1017.9mb 56f 58f
7:36pm 8 14 mph 1017.7mb 56f 58f
7:30pm 9 13 mph 1017.8mb 56f 59f
7:24pm 10 15 mph 1017.9mb 56f 59f
7:18pm 13 16 mph 1017.9mb 56f 59f
7:12pm 13 16 mph 1017.8mb 56f 59f
7:06pm 10 13 mph 1017.8mb 56f 59f
7:00pm 11 16 mph 1017.7mb 56f 59f
6:36pm 11 15 mph 1017.6mb 56f 59f
6:30pm 10 15 mph 1017.6mb 56f 60f
6:24pm 10 16 mph 1017.6mb 56f 60f
6:18pm 10 16 mph 1017.5mb 56f 59f
6:12pm 11 17 mph 1017.5mb 56f 60f
6:06pm 11 17 mph 1017.5mb 56f 60f
6:00pm 14 18 mph 1017.5mb 57f 60f
5:36pm 14 21 mph 1017.2mb 57f 60f
5:30pm 16 20 mph 1017.2mb 57f 60f
5:24pm 15 20 mph 1017.2mb 57f 60f
5:18pm 14 18 mph 1017.2mb 57f 60f
5:12pm 16 21 mph 1017.2mb 57f 60f
5:06pm 15 21 mph 1017.2mb 58f 60f
5:00pm 15 20 mph 1017.3mb 58f 60f
4:36pm 14 22 mph 1017.3mb 60f 60f
4:30pm 14 21 mph 1017.2mb 60f 60f
4:24pm 14 22 mph 1017.2mb 60f 60f
4:18pm 15 21 mph 1017.2mb 60f 60f
4:12pm 16 20 mph 1017.1mb 60f 60f
4:06pm 15 22 mph 1017mb 60f 60f
4:00pm 15 21 mph 1017mb 60f 60f
3:36pm 17 22 mph 1016.7mb 60f 61f
3:30pm 16 23 mph 1016.6mb 60f 60f
3:24pm 16 22 mph 1016.6mb 60f 61f
3:18pm 15 23 mph 1016.7mb 60f 61f
3:12pm 16 22 mph 1016.7mb 60f 61f
3:06pm 18 24 mph 1016.6mb 59f 61f
3:00pm 16 22 mph 1016.6mb 59f 61f
2:36pm 17 22 mph 1016.5mb 59f 61f
2:30pm 18 23 mph 1016.6mb 59f 61f
2:24pm 17 25 mph 1016.5mb 59f 61f
2:18pm 18 24 mph 1016.5mb 59f 61f
2:12pm 17 24 mph 1016.5mb 58f 61f
2:06pm 18 25 mph 1016.5mb 58f 61f
2:00pm 21 26 mph 1016.5mb 58f 61f
1:36pm 18 28 mph 1016.3mb 58f 61f
1:30pm 16 25 mph 1016.3mb 58f 61f
1:24pm 18 26 mph 1016.2mb 58f 61f
1:18pm 22 25 mph - - 60f
1:12pm 20 25 mph 1016.2mb 58f 60f
1:06pm 22 25 mph 1016.1mb 58f 60f
1:00pm 18 26 mph 1016.1mb 58f 61f
12:36pm 15 25 mph 1016.1mb 58f 61f
12:30pm 18 22 mph 1016.1mb 58f 60f
12:24pm 17 24 mph 1016.1mb 58f 61f
12:18pm 17 26 mph 1016.1mb 58f 61f
12:12pm 17 24 mph 1016.2mb 58f 61f
12:06pm 14 22 mph 1016.2mb 58f 61f
12:00pm 17 24 mph 1016.2mb 58f 61f
11:36am 16 23 mph 1016.2mb 59f 61f
11:30am 14 22 mph 1016.1mb 59f 61f
11:24am 14 22 mph 1016.1mb 59f 61f
11:18am 14 22 mph 1016.1mb 59f 60f
11:12am 14 20 mph 1016mb 59f 60f
11:06am 14 21 mph 1016mb 59f 60f
11:00am 14 21 mph 1016mb 59f 60f
10:36am 13 17 mph 1015.9mb 59f 60f
10:30am 14 20 mph 1015.8mb 59f 60f
10:24am 15 20 mph 1015.9mb 59f 60f
10:18am 14 20 mph 1015.9mb 59f 60f
10:12am 11 17 mph 1015.9mb 59f 60f
10:06am 13 18 mph 1015.8mb 59f 60f
10:00am 11 16 mph 1015.8mb 59f 60f
9:36am 11 17 mph 1015.7mb 58f 59f
9:30am 13 17 mph 1015.7mb 58f 59f
9:24am 11 16 mph 1015.7mb 58f 59f
9:18am 8 16 mph 1015.6mb 58f 59f
9:12am 10 16 mph 1015.6mb 58f 59f
9:06am 10 16 mph 1015.5mb 58f 59f
9:00am 11 18 mph 1015.4mb 58f 59f
8:36am 14 18 mph 1015.2mb 57f 58f
8:30am 10 15 mph 1015.3mb 57f 58f
8:24am 13 15 mph 1015.2mb 57f 58f
8:18am 8 17 mph 1015.2mb 57f 58f
8:12am 13 18 mph 1014.9mb 57f 58f
8:06am 10 15 mph 1014.9mb 57f 58f
8:00am 11 16 mph 1014.8mb 57f 58f
7:36am 10 15 mph 1014.7mb 57f 58f
7:30am 10 16 mph 1014.6mb 57f 58f
7:24am 11 17 mph 1014.4mb 57f 58f
7:18am 13 18 mph 1014.2mb 56f 57f
7:12am 14 18 mph 1014.2mb 56f 57f
7:06am 13 20 mph 1014.1mb 56f 57f
7:00am 10 17 mph 1014.1mb 56f 57f
6:36am 9 15 mph 1014mb 56f 57f
6:30am 10 15 mph 1013.9mb 56f 57f
6:24am 10 15 mph 1013.9mb 56f 57f
6:18am 10 15 mph 1013.9mb 56f 57f
6:12am 9 14 mph 1013.8mb 56f 57f
6:06am 10 13 mph 1013.8mb 56f 57f
6:00am 7 10 mph 1013.9mb 56f 56f
5:36am 6 7 mph 1013.9mb 56f 56f
5:30am 6 7 mph 1013.8mb 56f 56f
5:24am 6 7 mph 1013.9mb 56f 56f
5:18am 5 6 mph 1013.9mb 56f 56f
5:12am 5 7 mph 1013.8mb 56f 56f
5:06am 6 8 mph 1013.8mb 56f 56f
5:00am 7 10 mph 1013.7mb 56f 56f
4:36am 8 9 mph 1013.6mb 56f 56f
4:30am 7 9 mph 1013.5mb 56f 56f
4:24am 7 9 mph 1013.5mb 56f 56f
4:18am 7 8 mph 1013.4mb 56f 56f
4:12am 7 8 mph 1013.5mb 56f 56f
4:06am 8 9 mph 1013.5mb 57f 57f
4:00am 8 9 mph 1013.6mb 57f 57f
3:36am 8 8 mph 1013.5mb 57f 57f
3:30am 8 9 mph 1013.5mb 57f 57f
3:24am 8 9 mph 1013.6mb 57f 57f
3:18am 7 8 mph 1013.5mb 58f 57f
3:12am 7 8 mph 1013.5mb 58f 57f
3:06am 7 8 mph 1013.5mb 58f 57f
3:00am 7 8 mph 1013.5mb 58f 57f
2:36am 6 8 mph 1013.3mb 58f 57f
2:30am 7 8 mph 1013.3mb 58f 57f
2:24am 7 8 mph 1013.3mb 57f 58f
2:18am 7 8 mph 1013.3mb 57f 58f
2:12am 8 8 mph 1013.4mb 58f 58f
2:06am 8 8 mph 1013.4mb 58f 58f
2:00am 8 8 mph 1013.4mb 58f 58f
1:36am 8 8 mph 1013.3mb 59f 57f
1:30am 7 8 mph 1013.2mb 59f 58f
1:24am 8 8 mph 1013.2mb 59f 57f
1:18am 7 8 mph 1013.2mb 59f 58f
1:12am 8 9 mph 1013.1mb 59f 58f
1:06am 8 9 mph 1013.1mb 59f 57f
1:00am 8 9 mph 1013.1mb 59f 57f
12:36am 7 7 mph 1013mb 59f 59f
12:30am 6 7 mph 1013mb 59f 59f
12:24am 6 8 mph 1012.9mb 59f 59f
12:18am 7 8 mph 1012.9mb 59f 60f
12:12am 7 7 mph 1013mb 59f 60f
12:06am 6 7 mph 1013.1mb 59f 60f
12:00am 7 7 mph 1013.1mb 59f 60f
Sun 06/17 11:36pm 6 7 mph 1012.9mb 59f 60f
11:30pm 6 7 mph 1012.9mb 60f 60f
11:24pm 7 7 mph 1012.8mb 60f 60f
11:18pm 6 7 mph 1012.8mb 60f 60f
11:12pm 5 6 mph 1012.8mb 60f 59f
11:06pm 5 6 mph 1012.9mb 60f 59f
11:00pm 6 8 mph 1012.8mb 60f 60f
10:36pm 6 6 mph 1012.7mb 60f 60f
10:30pm 6 7 mph 1012.7mb 60f 60f
10:24pm 6 6 mph - - 60f
10:18pm 6 8 mph 1012.7mb 60f 60f
10:12pm 6 6 mph 1012.7mb 60f 60f
10:06pm 6 8 mph 1012.7mb 60f 60f
10:00pm 7 8 mph 1012.7mb 60f 60f
9:36pm 5 7 mph 1012.3mb 60f 60f
9:30pm 6 7 mph 1012.3mb 60f 60f
9:24pm 5 8 mph 1012.1mb 60f 60f
9:18pm 8 9 mph 1012.1mb 60f 60f
9:12pm 5 7 mph 1012mb 60f 60f
9:06pm 3 7 mph 1012mb 59f 60f
9:00pm 6 9 mph 1012.1mb 59f 60f
8:36pm 11 13 mph 1011.7mb 59f 60f
8:30pm 10 13 mph 1011.7mb 59f 60f
8:24pm 10 13 mph 1011.8mb 59f 61f
8:18pm 9 11 mph 1011.8mb 59f 61f
8:12pm 9 11 mph 1011.8mb 59f 61f
8:06pm 10 11 mph 1011.8mb 58f 61f
8:00pm 9 10 mph 1011.8mb 58f 61f
7:36pm 8 11 mph 1012mb 57f 62f
7:30pm 9 11 mph 1012mb 56f 62f
7:24pm 8 10 mph 1012.1mb 56f 62f
7:18pm 8 10 mph 1012.1mb 56f 61f
7:12pm 9 10 mph 1012.1mb 57f 61f
7:06pm 9 10 mph 1012.1mb 57f 61f
7:00pm 10 11 mph 1012mb 57f 61f
6:36pm 10 11 mph 1012.1mb 56f 61f
6:30pm 7 9 mph 1012.1mb 56f 61f
6:24pm 8 10 mph 1012.1mb 56f 61f
6:18pm 7 10 mph 1012.1mb 56f 62f
6:12pm 9 11 mph 1012.1mb 55f 61f
6:06pm 8 11 mph 1012.1mb 55f 61f
6:00pm 9 10 mph 1012.2mb 55f 61f
5:36pm 9 11 mph 1012mb 55f 63f
5:30pm 11 11 mph 1012mb 55f 63f
5:24pm 11 13 mph 1012.1mb 55f 63f
5:18pm 11 15 mph 1012.2mb 55f 63f
5:12pm 13 15 mph 1012.3mb 55f 62f
5:06pm 14 14 mph 1012.3mb 55f 62f
5:00pm 14 15 mph 1012.3mb 56f 62f
4:36pm 15 16 mph 1012.5mb 55f 63f
4:30pm 14 16 mph 1012.5mb 56f 64f
4:24pm 15 15 mph 1012.6mb 56f 64f
4:18pm 14 15 mph 1012.6mb 56f 64f
4:12pm 10 13 mph 1012.7mb 56f 63f
4:06pm 5 13 mph 1012.7mb 56f 64f
4:00pm 11 16 mph 1012.8mb 56f 63f
3:36pm 7 10 mph 1012.8mb 57f 64f
3:30pm 9 10 mph 1012.9mb 58f 63f
3:24pm 6 13 mph 1012.9mb 59f 63f
3:18pm 9 11 mph 1012.8mb 60f 63f
3:12pm 10 14 mph 1012.7mb 60f 63f
3:06pm 14 15 mph 1012.8mb 60f 62f
3:00pm 11 13 mph 1012.8mb 60f 62f
2:36pm 16 22 mph 1012.7mb 60f 62f
2:30pm 15 20 mph 1012.7mb 60f 62f
2:24pm 14 21 mph 1012.7mb 60f 62f
2:18pm 16 20 mph 1012.8mb 59f 62f
2:12pm 15 21 mph 1012.9mb 59f 62f
2:06pm 15 17 mph 1012.8mb 59f 62f
2:00pm 14 18 mph 1012.9mb 59f 62f
1:36pm 15 16 mph 1013mb 59f 62f
1:30pm 13 14 mph 1013mb 59f 62f
1:24pm 13 14 mph 1013mb 59f 62f
1:18pm 10 14 mph 1013.1mb 59f 62f
1:12pm 13 14 mph 1013.2mb 59f 62f
1:06pm 13 14 mph 1013.3mb 58f 62f
1:00pm 13 14 mph 1013.3mb 58f 62f
12:36pm 13 14 mph 1013.3mb 58f 62f
12:30pm 11 13 mph 1013.2mb 58f 63f
12:24pm 11 13 mph 1013.4mb 58f 62f
12:18pm 11 13 mph 1013.4mb 58f 62f
12:12pm 10 11 mph 1013.4mb 58f 62f
12:06pm 10 11 mph 1013.4mb 59f 61f
12:00pm 7 7 mph 1013.4mb 59f 62f
11:36am 10 10 mph 1013.5mb 59f 62f
11:30am 10 10 mph 1013.6mb 59f 62f
11:24am 9 10 mph 1013.6mb 59f 62f
11:18am 10 10 mph 1013.6mb 59f 62f
11:12am 9 10 mph 1013.7mb 59f 61f
11:06am 9 10 mph 1013.7mb 60f 61f
11:00am 9 10 mph 1013.8mb 60f 61f
10:36am 9 9 mph 1013.9mb 60f 63f
10:30am 6 8 mph 1014mb 60f 64f
10:24am 7 8 mph 1013.9mb 60f 65f
10:18am 3 7 mph 1013.9mb 60f 67f
10:12am 3 7 mph 1014mb 60f 67f
10:06am 6 7 mph 1014mb 60f 67f
10:00am 5 8 mph 1014mb 60f 67f
9:36am 5 6 mph 1014.3mb 59f 66f
9:30am 3 5 mph 1014.3mb 59f 66f
9:24am 3 6 mph 1014.4mb 59f 65f
9:18am 3 6 mph 1014.4mb 59f 65f
9:12am 3 6 mph 1014.4mb 59f 65f
9:06am 5 6 mph 1014.5mb 58f 65f
9:00am 1 6 mph 1014.5mb 58f 64f
8:36am 2 5 mph 1014.6mb 58f 64f
8:30am 2 5 mph 1014.7mb 58f 63f
8:24am 2 3 mph 1014.7mb 58f 63f
8:18am 3 5 mph 1014.6mb 58f 63f
8:12am 3 3 mph 1014.6mb 58f 62f
8:06am 2 3 mph 1014.5mb 57f 62f
8:00am 2 3 mph 1014.5mb 57f 60f
7:36am 6 7 mph 1014.5mb 57f 58f
7:30am 5 6 mph 1014.5mb 57f 58f
7:24am 6 7 mph 1014.5mb 57f 58f
7:18am 6 7 mph 1014.5mb 57f 57f
7:12am 7 9 mph 1014.5mb 57f 56f
7:06am 8 9 mph 1014.6mb 57f 56f
7:00am 7 8 mph 1014.6mb 57f 56f
6:36am 6 7 mph 1014.5mb 57f 56f
6:30am 6 7 mph 1014.5mb 57f 56f
6:24am 6 7 mph 1014.4mb 57f 56f
6:18am 6 6 mph 1014.3mb 57f 56f
6:12am 6 6 mph 1014.3mb 57f 56f
6:06am 6 7 mph 1014.3mb 57f 56f
6:00am 7 8 mph 1014.3mb 57f 56f
5:36am 8 9 mph 1014.4mb 56f 56f
5:30am 7 8 mph 1014.5mb 56f 56f
5:24am 7 8 mph 1014.5mb 56f 56f
5:18am 7 8 mph 1014.4mb 56f 56f
5:12am 7 8 mph 1014.4mb 56f 56f
5:06am 7 8 mph 1014.5mb 56f 56f
5:00am 7 8 mph 1014.4mb 56f 56f
4:36am 8 9 mph 1014.4mb 56f 56f
4:30am 8 9 mph 1014.4mb 56f 57f
4:24am 9 10 mph 1014.4mb 56f 57f
4:18am 6 8 mph 1014.4mb 56f 57f
4:12am 6 7 mph 1014.4mb 56f 57f
4:06am 5 6 mph 1014.4mb 56f 57f
4:00am 5 6 mph 1014.5mb 56f 57f
3:36am 2 5 mph 1014.6mb 56f 56f
3:30am 3 7 mph 1014.7mb 56f 56f
3:24am 5 7 mph 1014.8mb 56f 57f
3:18am 3 5 mph 1014.8mb 56f 57f
3:12am 2 3 mph 1014.7mb 56f 57f
3:06am 1 2 mph 1014.8mb 56f 57f
3:00am 1 5 mph 1014.8mb 56f 57f
2:36am 1 2 mph 1014.9mb 57f 57f
2:30am 1 2 mph 1014.8mb 57f 57f
2:24am 1 2 mph 1014.9mb 57f 57f
2:18am 2 6 mph 1014.8mb 57f 58f
2:12am 5 6 mph 1014.7mb 57f 58f
2:06am 5 6 mph 1014.7mb 57f 58f
2:00am 5 6 mph 1014.7mb 57f 58f
1:36am 5 7 mph 1015mb 57f 58f
1:30am 6 6 mph 1014.9mb 57f 58f
1:24am 3 6 mph 1014.9mb 57f 58f
1:18am 5 6 mph 1014.8mb 57f 57f
1:12am 3 3 mph 1014.9mb 57f 57f
1:06am 3 6 mph 1014.8mb 57f 58f
1:00am 5 6 mph 1014.9mb 58f 58f
12:36am 5 6 mph 1014.8mb 58f 58f
12:30am 6 6 mph 1014.8mb 58f 58f
12:24am 6 6 mph 1014.7mb 58f 57f
12:18am 3 3 mph 1014.8mb 58f 57f
12:12am 3 5 mph 1014.8mb 58f 57f
12:06am 5 6 mph 1014.8mb 58f 57f
12:00am 6 6 mph 1014.9mb 58f 58f
Sat 06/16 11:36pm 6 7 mph 1014.8mb 58f 58f
11:30pm 8 9 mph 1014.8mb 58f 58f
11:24pm 7 8 mph 1014.8mb 58f 58f
11:18pm 6 7 mph 1014.8mb 58f 59f
11:12pm 2 5 mph 1014.7mb 58f 60f
11:06pm 3 3 mph 1014.6mb 58f 60f
11:00pm  -  1 mph 1014.7mb 58f 59f
10:36pm 5 6 mph 1014.8mb 59f 60f
10:30pm 5 5 mph 1014.9mb 59f 60f
10:24pm 3 6 mph 1014.9mb 59f 60f
10:18pm 5 6 mph 1014.8mb 59f 60f
10:12pm 6 7 mph 1014.8mb 59f 60f
10:06pm 6 6 mph 1014.8mb 59f 60f
10:00pm 6 8 mph 1014.9mb 59f 61f
9:36pm 6 7 mph 1014.7mb 58f 60f
9:30pm 6 7 mph 1014.6mb 58f 60f
9:24pm 5 6 mph 1014.5mb 58f 60f
9:18pm 3 6 mph 1014.5mb 58f 60f
9:12pm 5 6 mph 1014.5mb 58f 60f
9:06pm 6 7 mph 1014.5mb 58f 60f
9:00pm 5 6 mph 1014.5mb 58f 60f
8:36pm 6 8 mph 1014.6mb 58f 61f
8:30pm 3 5 mph 1014.8mb 58f 61f
8:24pm 3 6 mph 1014.8mb 58f 61f
8:18pm 6 7 mph 1014.7mb 58f 62f
8:12pm 5 7 mph 1014.7mb 58f 62f
8:06pm 6 7 mph 1014.7mb 58f 62f
8:00pm 6 8 mph 1014.8mb 58f 62f
7:36pm 6 8 mph 1015mb 58f 61f
7:30pm 6 7 mph 1015.1mb 58f 61f
7:24pm 6 8 mph 1015.1mb 58f 61f
7:18pm 7 8 mph 1015.1mb 58f 60f
7:12pm 7 8 mph 1015.1mb 58f 60f
7:06pm 7 9 mph 1015.1mb 58f 60f
7:00pm 7 8 mph 1015mb 58f 60f
6:36pm 6 9 mph 1015mb 56f 60f
6:30pm 7 8 mph 1015.1mb 56f 61f
6:24pm 8 11 mph 1015.2mb 56f 60f
6:18pm 8 9 mph 1015.2mb 56f 60f
6:12pm 9 11 mph 1015.1mb 56f 60f
6:06pm 9 11 mph 1015.1mb 56f 60f
6:00pm 10 13 mph 1015.1mb 56f 60f
5:36pm 11 13 mph 1015mb 55f 60f
5:30pm 11 13 mph 1015.2mb 55f 60f
5:24pm 13 13 mph 1015.3mb 55f 60f
5:18pm 9 13 mph 1015.3mb 55f 60f
5:12pm 11 14 mph 1015.4mb 55f 60f
5:06pm 15 15 mph 1015.2mb 55f 60f
5:00pm 14 15 mph 1015.2mb 55f 60f
4:36pm 14 15 mph 1015.3mb 55f 60f
4:30pm 15 16 mph 1015.2mb 55f 60f
4:24pm 13 14 mph 1015.3mb 55f 60f
4:18pm 11 13 mph 1015.3mb 55f 60f
4:12pm 10 11 mph 1015.3mb 55f 60f
4:06pm 10 13 mph 1015.3mb 55f 60f
4:00pm 10 13 mph 1015.3mb 55f 60f
3:36pm 13 14 mph 1015.4mb 55f 60f
3:30pm 13 14 mph 1015.4mb 55f 60f
3:24pm 14 15 mph 1015.6mb 55f 60f
3:18pm 13 14 mph 1015.6mb 55f 60f
3:12pm 13 14 mph 1015.7mb 55f 59f
3:06pm 11 14 mph 1015.8mb 56f 59f
3:00pm 10 13 mph 1015.8mb 56f 59f
2:36pm 10 13 mph 1015.8mb 58f 58f
2:30pm 11 13 mph 1015.9mb 58f 58f
2:24pm 10 11 mph 1015.8mb 59f 58f
2:18pm 9 10 mph 1015.7mb 58f 58f
2:12pm 6 9 mph 1015.8mb 59f 58f
2:06pm 10 11 mph 1015.9mb 60f 58f
2:00pm 9 10 mph 1015.9mb 60f 58f
1:36pm 9 9 mph 1016mb 60f 58f
1:30pm 8 9 mph 1016.1mb 60f 58f
1:24pm 9 10 mph 1016.1mb 60f 58f
1:18pm 9 9 mph 1016.1mb 59f 58f
1:12pm 8 9 mph 1016.1mb 59f 58f
1:06pm 8 9 mph 1016.1mb 59f 58f
1:00pm 10 10 mph 1016.1mb 59f 58f
12:36pm 6 7 mph 1016.1mb 59f 59f
12:30pm 6 7 mph 1016.2mb 59f 59f
12:24pm 6 7 mph 1016.2mb 59f 59f
12:18pm 6 6 mph 1016.3mb 58f 60f
12:12pm 6 7 mph 1016.3mb 58f 59f
12:06pm 6 7 mph 1016.3mb 58f 59f
12:00pm 6 7 mph 1016.3mb 58f 58f
11:36am 6 7 mph 1016.5mb 59f 56f
11:30am 6 7 mph 1016.5mb 59f 57f
11:24am 5 6 mph 1016.5mb 59f 59f
11:18am 6 6 mph 1016.5mb 60f 58f
11:12am 6 6 mph 1016.6mb 60f 58f
11:06am 6 7 mph 1016.6mb 60f 57f
11:00am 7 7 mph 1016.6mb 60f 58f
10:36am 7 9 mph 1016.6mb 60f 57f
10:30am 8 9 mph 1016.6mb 60f 57f
10:24am 8 9 mph 1016.6mb 60f 57f
10:18am 8 10 mph 1016.6mb 60f 57f
10:12am 10 11 mph 1016.6mb 60f 56f
10:06am 10 11 mph 1016.5mb 60f 56f
10:00am 10 11 mph 1016.6mb 60f 57f
9:36am 8 10 mph 1016.5mb 60f 58f
9:30am 9 10 mph 1016.4mb 60f 58f
9:24am 9 11 mph 1016.5mb 60f 58f
9:18am 8 10 mph 1016.5mb 60f 57f
9:12am 9 11 mph 1016.4mb 60f 57f
9:06am 9 11 mph 1016.2mb 59f 58f
9:00am 7 9 mph 1016.2mb 59f 58f
8:36am 5 7 mph 1016mb 59f 58f
8:30am 6 7 mph 1015.9mb 59f 58f
8:24am 6 8 mph 1015.9mb 59f 58f
8:18am 5 7 mph 1015.8mb 59f 59f
8:12am 6 6 mph 1015.7mb 59f 59f
8:06am 5 6 mph 1015.6mb 58f 59f
8:00am 5 6 mph 1015.5mb 58f 59f
7:36am 2 3 mph 1015.1mb 58f 60f
7:30am 1 2 mph 1015mb 58f 60f
7:24am 2 3 mph 1014.9mb 58f 58f
7:18am 3 5 mph 1014.9mb 58f 57f
7:12am 5 6 mph 1015mb 58f 56f
7:06am 3 6 mph 1015mb 58f 56f
7:00am 5 5 mph 1015mb 58f 56f
6:36am 5 5 mph 1014.9mb 58f 55f
6:30am 5 5 mph 1014.9mb 58f 55f
6:24am 3 6 mph 1015mb 58f 55f
6:18am 5 6 mph 1014.9mb 57f 54f
6:12am 5 5 mph 1014.8mb 57f 54f
6:06am 5 5 mph 1014.8mb 57f 54f
6:00am 3 5 mph 1014.8mb 57f 54f
5:36am 3 6 mph 1014.6mb 57f 54f
5:30am 3 6 mph 1014.5mb 57f 54f
5:24am 2 5 mph 1014.4mb 57f 54f
5:18am 1 2 mph 1014.1mb 57f 54f
5:12am 2 3 mph 1014.1mb 57f 54f
5:06am 2 3 mph 1014.2mb 56f 54f
5:00am  -  2 mph 1014.3mb 56f 54f
4:36am 6 7 mph 1014.6mb 56f 55f
4:30am 6 7 mph 1014.6mb 56f 54f
4:24am 5 6 mph 1014.5mb 56f 55f
4:18am 5 7 mph 1014.3mb 56f 55f
4:12am 6 7 mph 1014.3mb 56f 55f
4:06am 6 6 mph 1014.2mb 56f 55f
4:00am 6 7 mph 1014.1mb 56f 55f
3:36am 7 8 mph 1014mb 56f 55f
3:30am 6 7 mph 1014.1mb 56f 55f
3:24am 7 8 mph 1014.1mb 56f 55f
3:18am 8 9 mph 1014.1mb 55f 55f
3:12am 9 10 mph 1014.1mb 55f 55f
3:06am 9 10 mph 1014.1mb 55f 55f
3:00am 9 10 mph 1014mb 55f 55f
2:36am 11 14 mph 1013.9mb 56f 55f
2:30am 11 13 mph 1014mb 56f 55f
2:24am 10 11 mph 1014mb 56f 55f
2:18am 11 11 mph 1013.9mb 56f 55f
2:12am 11 14 mph 1013.9mb 56f 55f
2:06am 11 14 mph 1013.9mb 56f 55f
2:00am 13 14 mph 1014mb 56f 55f
1:36am 13 14 mph 1014.1mb 57f 55f